sensor_id;sensor_type;location;lat;lon;timestamp;temperature;humidity
35960;DHT22;22043;50.970;7.192;2022-10-31T00:02:00;14.10;99.90
35960;DHT22;22043;50.970;7.192;2022-10-31T00:04:26;14.10;99.90
35960;DHT22;22043;50.970;7.192;2022-10-31T00:06:52;14.10;99.90
35960;DHT22;22043;50.970;7.192;2022-10-31T00:09:17;14.00;99.90
35960;DHT22;22043;50.970;7.192;2022-10-31T00:11:43;14.00;99.90
35960;DHT22;22043;50.970;7.192;2022-10-31T00:14:09;13.90;99.90
35960;DHT22;22043;50.970;7.192;2022-10-31T00:16:34;14.00;99.90
35960;DHT22;22043;50.970;7.192;2022-10-31T00:19:03;13.90;99.90
35960;DHT22;22043;50.970;7.192;2022-10-31T00:21:30;13.90;99.90
35960;DHT22;22043;50.970;7.192;2022-10-31T00:23:57;13.90;99.90
35960;DHT22;22043;50.970;7.192;2022-10-31T00:26:23;13.80;99.90
35960;DHT22;22043;50.970;7.192;2022-10-31T00:28:49;13.80;99.90
35960;DHT22;22043;50.970;7.192;2022-10-31T00:31:16;13.90;99.90
35960;DHT22;22043;50.970;7.192;2022-10-31T00:33:43;13.80;99.90
35960;DHT22;22043;50.970;7.192;2022-10-31T00:36:15;13.80;99.90
35960;DHT22;22043;50.970;7.192;2022-10-31T00:38:41;13.80;99.90
35960;DHT22;22043;50.970;7.192;2022-10-31T00:41:08;13.80;99.90
35960;DHT22;22043;50.970;7.192;2022-10-31T00:43:34;13.80;99.90
35960;DHT22;22043;50.970;7.192;2022-10-31T00:45:59;13.80;99.90
35960;DHT22;22043;50.970;7.192;2022-10-31T00:48:25;13.80;99.90
35960;DHT22;22043;50.970;7.192;2022-10-31T00:50:52;13.80;99.90
35960;DHT22;22043;50.970;7.192;2022-10-31T00:53:17;13.80;99.90
35960;DHT22;22043;50.970;7.192;2022-10-31T00:55:43;13.80;99.90
35960;DHT22;22043;50.970;7.192;2022-10-31T00:58:09;13.90;99.90
35960;DHT22;22043;50.970;7.192;2022-10-31T01:00:34;13.90;99.90
35960;DHT22;22043;50.970;7.192;2022-10-31T01:03:00;13.90;99.90
35960;DHT22;22043;50.970;7.192;2022-10-31T01:05:26;13.90;99.90
35960;DHT22;22043;50.970;7.192;2022-10-31T01:07:52;13.90;99.90
35960;DHT22;22043;50.970;7.192;2022-10-31T01:10:18;14.00;99.90
35960;DHT22;22043;50.970;7.192;2022-10-31T01:12:46;13.90;99.90
35960;DHT22;22043;50.970;7.192;2022-10-31T01:15:15;14.00;99.90
35960;DHT22;22043;50.970;7.192;2022-10-31T01:17:41;14.00;99.90
35960;DHT22;22043;50.970;7.192;2022-10-31T01:20:11;14.00;99.90
35960;DHT22;22043;50.970;7.192;2022-10-31T01:22:37;14.00;99.90
35960;DHT22;22043;50.970;7.192;2022-10-31T01:25:04;14.10;99.90
35960;DHT22;22043;50.970;7.192;2022-10-31T01:27:31;14.00;99.90
35960;DHT22;22043;50.970;7.192;2022-10-31T01:29:56;14.00;99.90
35960;DHT22;22043;50.970;7.192;2022-10-31T01:32:22;14.00;99.90
35960;DHT22;22043;50.970;7.192;2022-10-31T01:34:49;14.00;99.90
35960;DHT22;22043;50.970;7.192;2022-10-31T01:37:15;13.90;99.90
35960;DHT22;22043;50.970;7.192;2022-10-31T01:39:41;13.90;99.90
35960;DHT22;22043;50.970;7.192;2022-10-31T01:42:12;13.90;99.90
35960;DHT22;22043;50.970;7.192;2022-10-31T01:47:07;13.80;99.90
35960;DHT22;22043;50.970;7.192;2022-10-31T01:49:56;13.80;99.90
35960;DHT22;22043;50.970;7.192;2022-10-31T01:52:40;13.80;99.90
35960;DHT22;22043;50.970;7.192;2022-10-31T01:55:19;13.80;99.90
35960;DHT22;22043;50.970;7.192;2022-10-31T01:57:49;13.70;99.90
35960;DHT22;22043;50.970;7.192;2022-10-31T02:00:17;13.70;99.90
35960;DHT22;22043;50.970;7.192;2022-10-31T02:02:45;13.70;99.90
35960;DHT22;22043;50.970;7.192;2022-10-31T02:05:24;13.80;99.90
35960;DHT22;22043;50.970;7.192;2022-10-31T02:08:04;13.80;99.90
35960;DHT22;22043;50.970;7.192;2022-10-31T02:10:33;13.80;99.90
35960;DHT22;22043;50.970;7.192;2022-10-31T02:13:04;13.80;99.90
35960;DHT22;22043;50.970;7.192;2022-10-31T02:15:31;13.80;99.90
35960;DHT22;22043;50.970;7.192;2022-10-31T02:17:57;13.80;99.90
35960;DHT22;22043;50.970;7.192;2022-10-31T02:20:25;13.70;99.90
35960;DHT22;22043;50.970;7.192;2022-10-31T02:31:28;13.60;99.90
35960;DHT22;22043;50.970;7.192;2022-10-31T02:34:03;13.50;99.90
35960;DHT22;22043;50.970;7.192;2022-10-31T02:36:47;13.50;99.90
35960;DHT22;22043;50.970;7.192;2022-10-31T02:39:26;13.50;99.90
35960;DHT22;22043;50.970;7.192;2022-10-31T02:42:18;13.50;99.90
35960;DHT22;22043;50.970;7.192;2022-10-31T02:45:32;13.40;99.90
35960;DHT22;22043;50.970;7.192;2022-10-31T02:48:09;13.40;99.90
35960;DHT22;22043;50.970;7.192;2022-10-31T02:50:41;13.40;99.90
35960;DHT22;22043;50.970;7.192;2022-10-31T02:53:09;13.40;99.90
35960;DHT22;22043;50.970;7.192;2022-10-31T02:58:06;13.40;99.90
35960;DHT22;22043;50.970;7.192;2022-10-31T03:04:15;13.40;99.90
35960;DHT22;22043;50.970;7.192;2022-10-31T03:06:24;13.30;99.90
35960;DHT22;22043;50.970;7.192;2022-10-31T03:11:54;13.40;99.90
35960;DHT22;22043;50.970;7.192;2022-10-31T03:14:26;13.30;99.90
35960;DHT22;22043;50.970;7.192;2022-10-31T03:17:00;13.30;99.90
35960;DHT22;22043;50.970;7.192;2022-10-31T03:19:48;13.30;99.90
35960;DHT22;22043;50.970;7.192;2022-10-31T03:22:33;13.30;99.90
35960;DHT22;22043;50.970;7.192;2022-10-31T03:25:02;13.40;99.90
35960;DHT22;22043;50.970;7.192;2022-10-31T03:27:32;13.40;99.90
35960;DHT22;22043;50.970;7.192;2022-10-31T03:30:03;13.40;99.90
35960;DHT22;22043;50.970;7.192;2022-10-31T03:32:54;13.40;99.90
35960;DHT22;22043;50.970;7.192;2022-10-31T03:35:23;13.40;99.90
35960;DHT22;22043;50.970;7.192;2022-10-31T03:37:53;13.40;99.90
35960;DHT22;22043;50.970;7.192;2022-10-31T03:40:21;13.40;99.90
35960;DHT22;22043;50.970;7.192;2022-10-31T03:42:54;13.40;99.90
35960;DHT22;22043;50.970;7.192;2022-10-31T03:45:24;13.40;99.90
35960;DHT22;22043;50.970;7.192;2022-10-31T03:47:52;13.40;99.90
35960;DHT22;22043;50.970;7.192;2022-10-31T03:50:19;13.40;99.90
35960;DHT22;22043;50.970;7.192;2022-10-31T03:52:57;13.40;99.90
35960;DHT22;22043;50.970;7.192;2022-10-31T03:55:41;13.40;99.90
35960;DHT22;22043;50.970;7.192;2022-10-31T03:58:10;13.40;99.90
35960;DHT22;22043;50.970;7.192;2022-10-31T04:00:40;13.40;99.90
35960;DHT22;22043;50.970;7.192;2022-10-31T04:03:10;13.30;99.90
35960;DHT22;22043;50.970;7.192;2022-10-31T04:05:38;13.30;99.90
35960;DHT22;22043;50.970;7.192;2022-10-31T04:08:08;13.30;99.90
35960;DHT22;22043;50.970;7.192;2022-10-31T04:10:37;13.20;99.90
35960;DHT22;22043;50.970;7.192;2022-10-31T04:13:12;13.20;99.90
35960;DHT22;22043;50.970;7.192;2022-10-31T04:15:45;13.20;99.90
35960;DHT22;22043;50.970;7.192;2022-10-31T04:18:12;13.20;99.90
35960;DHT22;22043;50.970;7.192;2022-10-31T04:20:40;13.20;99.90
35960;DHT22;22043;50.970;7.192;2022-10-31T04:23:22;13.20;99.90
35960;DHT22;22043;50.970;7.192;2022-10-31T04:25:49;13.10;99.90
35960;DHT22;22043;50.970;7.192;2022-10-31T04:28:16;13.10;99.90
35960;DHT22;22043;50.970;7.192;2022-10-31T04:30:42;13.20;99.90
35960;DHT22;22043;50.970;7.192;2022-10-31T04:33:08;13.10;99.90
35960;DHT22;22043;50.970;7.192;2022-10-31T04:35:34;13.10;99.90
35960;DHT22;22043;50.970;7.192;2022-10-31T04:38:00;13.10;99.90
35960;DHT22;22043;50.970;7.192;2022-10-31T04:40:26;13.00;99.90
35960;DHT22;22043;50.970;7.192;2022-10-31T04:42:51;13.10;99.90
35960;DHT22;22043;50.970;7.192;2022-10-31T04:45:18;13.00;99.90
35960;DHT22;22043;50.970;7.192;2022-10-31T04:47:44;13.00;99.90
35960;DHT22;22043;50.970;7.192;2022-10-31T04:50:09;13.00;99.90
35960;DHT22;22043;50.970;7.192;2022-10-31T04:52:41;13.00;99.90
35960;DHT22;22043;50.970;7.192;2022-10-31T04:55:09;13.00;99.90
35960;DHT22;22043;50.970;7.192;2022-10-31T04:58:11;13.00;99.90
35960;DHT22;22043;50.970;7.192;2022-10-31T05:00:37;13.00;99.90
35960;DHT22;22043;50.970;7.192;2022-10-31T05:03:04;13.10;99.90
35960;DHT22;22043;50.970;7.192;2022-10-31T05:05:30;13.10;99.90
35960;DHT22;22043;50.970;7.192;2022-10-31T05:07:59;13.00;99.90
35960;DHT22;22043;50.970;7.192;2022-10-31T05:10:28;13.00;99.90
35960;DHT22;22043;50.970;7.192;2022-10-31T05:12:59;13.00;99.90
35960;DHT22;22043;50.970;7.192;2022-10-31T05:15:43;13.00;99.90
35960;DHT22;22043;50.970;7.192;2022-10-31T05:18:27;13.00;99.90
35960;DHT22;22043;50.970;7.192;2022-10-31T05:21:12;13.10;99.90
35960;DHT22;22043;50.970;7.192;2022-10-31T05:23:43;13.10;99.90
35960;DHT22;22043;50.970;7.192;2022-10-31T05:26:09;13.10;99.90
35960;DHT22;22043;50.970;7.192;2022-10-31T05:28:34;13.10;99.90
35960;DHT22;22043;50.970;7.192;2022-10-31T05:31:02;13.10;99.90
35960;DHT22;22043;50.970;7.192;2022-10-31T05:33:27;13.10;99.90
35960;DHT22;22043;50.970;7.192;2022-10-31T05:36:11;13.10;99.90
35960;DHT22;22043;50.970;7.192;2022-10-31T05:39:00;13.10;99.90
35960;DHT22;22043;50.970;7.192;2022-10-31T05:41:34;13.00;99.90
35960;DHT22;22043;50.970;7.192;2022-10-31T05:44:04;13.00;99.90
35960;DHT22;22043;50.970;7.192;2022-10-31T05:46:35;13.00;99.90
35960;DHT22;22043;50.970;7.192;2022-10-31T05:49:21;13.00;99.90
35960;DHT22;22043;50.970;7.192;2022-10-31T05:52:06;13.10;99.90
35960;DHT22;22043;50.970;7.192;2022-10-31T05:54:39;13.00;99.90
35960;DHT22;22043;50.970;7.192;2022-10-31T05:57:04;13.00;99.90
35960;DHT22;22043;50.970;7.192;2022-10-31T05:59:30;13.10;99.90
35960;DHT22;22043;50.970;7.192;2022-10-31T06:01:57;13.00;99.90
35960;DHT22;22043;50.970;7.192;2022-10-31T06:04:41;13.00;99.90
35960;DHT22;22043;50.970;7.192;2022-10-31T06:07:07;13.00;99.90
35960;DHT22;22043;50.970;7.192;2022-10-31T06:09:33;12.90;99.90
35960;DHT22;22043;50.970;7.192;2022-10-31T06:11:58;12.90;99.90
35960;DHT22;22043;50.970;7.192;2022-10-31T06:14:24;12.90;99.90
35960;DHT22;22043;50.970;7.192;2022-10-31T06:16:55;12.90;99.90
35960;DHT22;22043;50.970;7.192;2022-10-31T06:19:41;12.80;99.90
35960;DHT22;22043;50.970;7.192;2022-10-31T06:22:08;12.80;99.90
35960;DHT22;22043;50.970;7.192;2022-10-31T06:24:37;12.80;99.90
35960;DHT22;22043;50.970;7.192;2022-10-31T06:27:23;12.80;99.90
35960;DHT22;22043;50.970;7.192;2022-10-31T06:29:49;12.80;99.90
35960;DHT22;22043;50.970;7.192;2022-10-31T06:32:26;12.90;99.90
35960;DHT22;22043;50.970;7.192;2022-10-31T06:34:52;12.90;99.90
35960;DHT22;22043;50.970;7.192;2022-10-31T06:37:17;13.00;99.90
35960;DHT22;22043;50.970;7.192;2022-10-31T06:39:46;13.00;99.90
35960;DHT22;22043;50.970;7.192;2022-10-31T06:42:15;13.00;99.90
35960;DHT22;22043;50.970;7.192;2022-10-31T06:44:42;13.00;99.90
35960;DHT22;22043;50.970;7.192;2022-10-31T06:47:26;13.00;99.90
35960;DHT22;22043;50.970;7.192;2022-10-31T06:49:55;13.00;99.90
35960;DHT22;22043;50.970;7.192;2022-10-31T06:52:22;12.90;99.90
35960;DHT22;22043;50.970;7.192;2022-10-31T06:54:49;12.90;99.90
35960;DHT22;22043;50.970;7.192;2022-10-31T06:57:15;13.00;99.90
35960;DHT22;22043;50.970;7.192;2022-10-31T06:59:41;13.00;99.90
35960;DHT22;22043;50.970;7.192;2022-10-31T07:02:10;13.00;99.90
35960;DHT22;22043;50.970;7.192;2022-10-31T07:04:37;13.10;99.90
35960;DHT22;22043;50.970;7.192;2022-10-31T07:07:03;13.10;99.90
35960;DHT22;22043;50.970;7.192;2022-10-31T07:09:29;13.10;99.90
35960;DHT22;22043;50.970;7.192;2022-10-31T07:11:58;13.10;99.90
35960;DHT22;22043;50.970;7.192;2022-10-31T07:14:24;13.10;99.90
35960;DHT22;22043;50.970;7.192;2022-10-31T07:16:50;13.10;99.90
35960;DHT22;22043;50.970;7.192;2022-10-31T07:19:21;13.10;99.90
35960;DHT22;22043;50.970;7.192;2022-10-31T07:21:47;13.10;99.90
35960;DHT22;22043;50.970;7.192;2022-10-31T07:24:14;13.10;99.90
35960;DHT22;22043;50.970;7.192;2022-10-31T07:26:40;13.20;99.90
35960;DHT22;22043;50.970;7.192;2022-10-31T07:29:07;13.20;99.90
35960;DHT22;22043;50.970;7.192;2022-10-31T07:31:33;13.20;99.90
35960;DHT22;22043;50.970;7.192;2022-10-31T07:34:04;13.30;99.90
35960;DHT22;22043;50.970;7.192;2022-10-31T07:36:36;13.30;99.90
35960;DHT22;22043;50.970;7.192;2022-10-31T07:39:03;13.40;99.90
35960;DHT22;22043;50.970;7.192;2022-10-31T07:41:31;13.40;99.90
35960;DHT22;22043;50.970;7.192;2022-10-31T07:43:56;13.40;99.90
35960;DHT22;22043;50.970;7.192;2022-10-31T07:46:41;13.50;99.90
35960;DHT22;22043;50.970;7.192;2022-10-31T07:49:44;13.60;99.90
35960;DHT22;22043;50.970;7.192;2022-10-31T07:52:29;13.70;99.90
35960;DHT22;22043;50.970;7.192;2022-10-31T07:55:00;13.70;99.90
35960;DHT22;22043;50.970;7.192;2022-10-31T07:57:26;13.70;99.90
35960;DHT22;22043;50.970;7.192;2022-10-31T07:59:52;13.70;99.90
35960;DHT22;22043;50.970;7.192;2022-10-31T08:02:18;13.70;99.90
35960;DHT22;22043;50.970;7.192;2022-10-31T08:04:46;13.70;99.90
35960;DHT22;22043;50.970;7.192;2022-10-31T08:07:38;13.70;99.90
35960;DHT22;22043;50.970;7.192;2022-10-31T08:10:06;13.80;99.90
35960;DHT22;22043;50.970;7.192;2022-10-31T08:12:33;13.80;99.90
35960;DHT22;22043;50.970;7.192;2022-10-31T08:14:59;13.80;99.90
35960;DHT22;22043;50.970;7.192;2022-10-31T08:17:25;13.80;99.90
35960;DHT22;22043;50.970;7.192;2022-10-31T08:19:56;13.90;99.90
35960;DHT22;22043;50.970;7.192;2022-10-31T08:22:33;13.90;99.90
35960;DHT22;22043;50.970;7.192;2022-10-31T08:25:00;14.00;99.90
35960;DHT22;22043;50.970;7.192;2022-10-31T08:27:27;14.00;99.90
35960;DHT22;22043;50.970;7.192;2022-10-31T08:29:54;14.00;99.90
35960;DHT22;22043;50.970;7.192;2022-10-31T08:32:21;14.10;99.90
35960;DHT22;22043;50.970;7.192;2022-10-31T08:35:06;14.10;99.90
35960;DHT22;22043;50.970;7.192;2022-10-31T08:37:54;14.10;99.90
35960;DHT22;22043;50.970;7.192;2022-10-31T08:40:24;14.20;99.90
35960;DHT22;22043;50.970;7.192;2022-10-31T08:45:23;14.30;99.90
35960;DHT22;22043;50.970;7.192;2022-10-31T08:47:49;14.30;99.90
35960;DHT22;22043;50.970;7.192;2022-10-31T08:50:14;14.30;99.90
35960;DHT22;22043;50.970;7.192;2022-10-31T08:52:45;14.30;99.90
35960;DHT22;22043;50.970;7.192;2022-10-31T08:55:11;14.40;99.90
35960;DHT22;22043;50.970;7.192;2022-10-31T08:57:59;14.40;99.90
35960;DHT22;22043;50.970;7.192;2022-10-31T09:00:34;14.40;99.90
35960;DHT22;22043;50.970;7.192;2022-10-31T09:03:28;14.40;99.90
35960;DHT22;22043;50.970;7.192;2022-10-31T09:05:56;14.50;99.90
35960;DHT22;22043;50.970;7.192;2022-10-31T09:08:22;14.50;99.90
35960;DHT22;22043;50.970;7.192;2022-10-31T09:10:50;14.50;99.90
35960;DHT22;22043;50.970;7.192;2022-10-31T09:13:24;14.50;99.90
35960;DHT22;22043;50.970;7.192;2022-10-31T09:16:10;14.60;99.90
35960;DHT22;22043;50.970;7.192;2022-10-31T09:18:35;14.60;99.90
35960;DHT22;22043;50.970;7.192;2022-10-31T09:21:01;14.60;99.90
35960;DHT22;22043;50.970;7.192;2022-10-31T09:23:29;14.70;99.90
35960;DHT22;22043;50.970;7.192;2022-10-31T09:25:55;14.70;99.90
35960;DHT22;22043;50.970;7.192;2022-10-31T09:28:35;14.70;99.90
35960;DHT22;22043;50.970;7.192;2022-10-31T09:31:06;14.70;99.90
35960;DHT22;22043;50.970;7.192;2022-10-31T09:33:53;14.80;99.90
35960;DHT22;22043;50.970;7.192;2022-10-31T09:36:42;14.80;99.90
35960;DHT22;22043;50.970;7.192;2022-10-31T09:39:17;14.90;99.90
35960;DHT22;22043;50.970;7.192;2022-10-31T09:44:38;15.00;99.90
35960;DHT22;22043;50.970;7.192;2022-10-31T09:50:54;15.00;99.90
35960;DHT22;22043;50.970;7.192;2022-10-31T09:53:53;15.10;99.90
35960;DHT22;22043;50.970;7.192;2022-10-31T09:56:23;15.20;99.90
35960;DHT22;22043;50.970;7.192;2022-10-31T09:58:56;15.20;99.90
35960;DHT22;22043;50.970;7.192;2022-10-31T10:01:34;15.30;99.90
35960;DHT22;22043;50.970;7.192;2022-10-31T10:07:14;15.50;99.90
35960;DHT22;22043;50.970;7.192;2022-10-31T10:09:42;15.50;99.90
35960;DHT22;22043;50.970;7.192;2022-10-31T10:12:50;15.50;99.90
35960;DHT22;22043;50.970;7.192;2022-10-31T10:21:04;15.70;99.90
35960;DHT22;22043;50.970;7.192;2022-10-31T10:26:36;15.70;99.90
35960;DHT22;22043;50.970;7.192;2022-10-31T10:31:49;15.70;99.90
35960;DHT22;22043;50.970;7.192;2022-10-31T10:34:21;15.80;99.90
35960;DHT22;22043;50.970;7.192;2022-10-31T10:37:01;15.70;99.90
35960;DHT22;22043;50.970;7.192;2022-10-31T10:39:37;15.80;99.90
35960;DHT22;22043;50.970;7.192;2022-10-31T10:42:11;15.80;99.90
35960;DHT22;22043;50.970;7.192;2022-10-31T10:44:57;15.90;99.90
35960;DHT22;22043;50.970;7.192;2022-10-31T10:47:44;15.90;99.90
35960;DHT22;22043;50.970;7.192;2022-10-31T10:50:28;15.90;99.90
35960;DHT22;22043;50.970;7.192;2022-10-31T10:56:11;15.90;99.90
35960;DHT22;22043;50.970;7.192;2022-10-31T10:58:41;15.90;99.90
35960;DHT22;22043;50.970;7.192;2022-10-31T11:01:14;15.90;99.90
35960;DHT22;22043;50.970;7.192;2022-10-31T11:03:41;15.90;99.90
35960;DHT22;22043;50.970;7.192;2022-10-31T11:06:36;16.00;99.90
35960;DHT22;22043;50.970;7.192;2022-10-31T11:09:09;16.00;99.90
35960;DHT22;22043;50.970;7.192;2022-10-31T11:11:36;16.10;99.90
35960;DHT22;22043;50.970;7.192;2022-10-31T11:14:11;16.10;99.90
35960;DHT22;22043;50.970;7.192;2022-10-31T11:16:44;16.10;99.90
35960;DHT22;22043;50.970;7.192;2022-10-31T11:19:21;16.00;99.90
35960;DHT22;22043;50.970;7.192;2022-10-31T11:21:48;16.00;99.90
35960;DHT22;22043;50.970;7.192;2022-10-31T11:24:17;16.10;99.90
35960;DHT22;22043;50.970;7.192;2022-10-31T11:26:45;16.10;99.90
35960;DHT22;22043;50.970;7.192;2022-10-31T11:29:24;16.10;99.90
35960;DHT22;22043;50.970;7.192;2022-10-31T11:31:53;16.20;99.90
35960;DHT22;22043;50.970;7.192;2022-10-31T11:34:43;16.20;99.90
35960;DHT22;22043;50.970;7.192;2022-10-31T11:37:20;16.20;99.90
35960;DHT22;22043;50.970;7.192;2022-10-31T11:39:53;16.30;99.90
35960;DHT22;22043;50.970;7.192;2022-10-31T11:42:25;16.30;99.90
35960;DHT22;22043;50.970;7.192;2022-10-31T11:44:53;16.30;99.90
35960;DHT22;22043;50.970;7.192;2022-10-31T11:47:27;16.30;99.90
35960;DHT22;22043;50.970;7.192;2022-10-31T11:49:55;16.30;99.90
35960;DHT22;22043;50.970;7.192;2022-10-31T11:52:29;16.40;99.90
35960;DHT22;22043;50.970;7.192;2022-10-31T11:55:14;16.40;99.90
35960;DHT22;22043;50.970;7.192;2022-10-31T11:57:51;16.50;99.90
35960;DHT22;22043;50.970;7.192;2022-10-31T12:00:37;16.40;99.90
35960;DHT22;22043;50.970;7.192;2022-10-31T12:08:16;16.50;99.90
35960;DHT22;22043;50.970;7.192;2022-10-31T12:11:03;16.60;99.90
35960;DHT22;22043;50.970;7.192;2022-10-31T12:16:39;16.50;99.90
35960;DHT22;22043;50.970;7.192;2022-10-31T12:22:15;16.50;99.90
35960;DHT22;22043;50.970;7.192;2022-10-31T12:25:09;16.50;99.90
35960;DHT22;22043;50.970;7.192;2022-10-31T12:30:21;16.50;99.90
35960;DHT22;22043;50.970;7.192;2022-10-31T12:33:26;16.50;99.90
35960;DHT22;22043;50.970;7.192;2022-10-31T12:39:02;16.60;99.90
35960;DHT22;22043;50.970;7.192;2022-10-31T12:50:08;16.60;99.90
35960;DHT22;22043;50.970;7.192;2022-10-31T12:53:00;16.70;99.90
35960;DHT22;22043;50.970;7.192;2022-10-31T12:58:21;16.80;99.90
35960;DHT22;22043;50.970;7.192;2022-10-31T13:00:53;16.80;99.90
35960;DHT22;22043;50.970;7.192;2022-10-31T13:06:47;17.00;99.90
35960;DHT22;22043;50.970;7.192;2022-10-31T13:13:00;17.00;99.90
35960;DHT22;22043;50.970;7.192;2022-10-31T13:15:31;17.00;99.90
35960;DHT22;22043;50.970;7.192;2022-10-31T13:18:00;17.10;99.90
35960;DHT22;22043;50.970;7.192;2022-10-31T13:25:44;17.10;99.90
35960;DHT22;22043;50.970;7.192;2022-10-31T13:28:27;17.20;99.90
35960;DHT22;22043;50.970;7.192;2022-10-31T13:30:53;17.20;99.90
35960;DHT22;22043;50.970;7.192;2022-10-31T13:33:37;17.20;99.90
35960;DHT22;22043;50.970;7.192;2022-10-31T13:36:32;17.20;99.90
35960;DHT22;22043;50.970;7.192;2022-10-31T13:39:25;17.20;99.90
35960;DHT22;22043;50.970;7.192;2022-10-31T13:44:32;17.20;99.90
35960;DHT22;22043;50.970;7.192;2022-10-31T13:47:00;17.20;99.90
35960;DHT22;22043;50.970;7.192;2022-10-31T13:49:38;17.20;99.90
35960;DHT22;22043;50.970;7.192;2022-10-31T13:54:41;17.20;99.90
35960;DHT22;22043;50.970;7.192;2022-10-31T13:57:33;17.20;99.90
35960;DHT22;22043;50.970;7.192;2022-10-31T14:00:24;17.20;99.90
35960;DHT22;22043;50.970;7.192;2022-10-31T14:02:53;17.20;99.90
35960;DHT22;22043;50.970;7.192;2022-10-31T14:05:27;17.20;99.90
35960;DHT22;22043;50.970;7.192;2022-10-31T14:07:54;17.10;99.90
35960;DHT22;22043;50.970;7.192;2022-10-31T14:10:47;17.10;99.90
35960;DHT22;22043;50.970;7.192;2022-10-31T14:13:24;17.10;99.90
35960;DHT22;22043;50.970;7.192;2022-10-31T14:15:57;17.10;99.90
35960;DHT22;22043;50.970;7.192;2022-10-31T14:18:36;17.10;99.90
35960;DHT22;22043;50.970;7.192;2022-10-31T14:21:25;17.10;99.90
35960;DHT22;22043;50.970;7.192;2022-10-31T14:23:52;17.00;99.90
35960;DHT22;22043;50.970;7.192;2022-10-31T14:31:42;17.00;99.90
35960;DHT22;22043;50.970;7.192;2022-10-31T14:39:31;16.90;99.90
35960;DHT22;22043;50.970;7.192;2022-10-31T14:47:31;16.90;99.90
35960;DHT22;22043;50.970;7.192;2022-10-31T14:50:12;16.90;99.90
35960;DHT22;22043;50.970;7.192;2022-10-31T14:52:49;16.90;99.90
35960;DHT22;22043;50.970;7.192;2022-10-31T14:55:16;16.90;99.90
35960;DHT22;22043;50.970;7.192;2022-10-31T14:57:54;17.00;99.90
35960;DHT22;22043;50.970;7.192;2022-10-31T15:00:21;16.90;99.90
35960;DHT22;22043;50.970;7.192;2022-10-31T15:03:04;16.90;99.90
35960;DHT22;22043;50.970;7.192;2022-10-31T15:05:32;17.00;99.90
35960;DHT22;22043;50.970;7.192;2022-10-31T15:07:59;16.90;99.90
35960;DHT22;22043;50.970;7.192;2022-10-31T15:10:33;16.90;99.90
35960;DHT22;22043;50.970;7.192;2022-10-31T15:13:20;16.90;99.90
35960;DHT22;22043;50.970;7.192;2022-10-31T15:15:47;16.90;99.90
35960;DHT22;22043;50.970;7.192;2022-10-31T15:18:17;16.90;99.90
35960;DHT22;22043;50.970;7.192;2022-10-31T15:20:44;16.90;99.90
35960;DHT22;22043;50.970;7.192;2022-10-31T15:23:21;16.90;99.90
35960;DHT22;22043;50.970;7.192;2022-10-31T15:25:48;16.90;99.90
35960;DHT22;22043;50.970;7.192;2022-10-31T15:28:23;16.90;99.90
35960;DHT22;22043;50.970;7.192;2022-10-31T15:30:56;16.90;99.90
35960;DHT22;22043;50.970;7.192;2022-10-31T15:33:27;16.90;99.90
35960;DHT22;22043;50.970;7.192;2022-10-31T15:36:01;16.80;99.90
35960;DHT22;22043;50.970;7.192;2022-10-31T15:38:28;16.80;99.90
35960;DHT22;22043;50.970;7.192;2022-10-31T15:41:06;16.80;99.90
35960;DHT22;22043;50.970;7.192;2022-10-31T15:43:44;16.80;99.90
35960;DHT22;22043;50.970;7.192;2022-10-31T15:46:11;16.70;99.90
35960;DHT22;22043;50.970;7.192;2022-10-31T15:48:38;16.60;99.90
35960;DHT22;22043;50.970;7.192;2022-10-31T15:51:08;16.60;99.90
35960;DHT22;22043;50.970;7.192;2022-10-31T15:53:45;16.50;99.90
35960;DHT22;22043;50.970;7.192;2022-10-31T15:56:23;16.50;99.90
35960;DHT22;22043;50.970;7.192;2022-10-31T15:58:51;16.40;99.90
35960;DHT22;22043;50.970;7.192;2022-10-31T16:01:31;16.40;99.90
35960;DHT22;22043;50.970;7.192;2022-10-31T16:06:30;16.30;99.90
35960;DHT22;22043;50.970;7.192;2022-10-31T16:08:56;16.30;99.90
35960;DHT22;22043;50.970;7.192;2022-10-31T16:11:35;16.20;99.90
35960;DHT22;22043;50.970;7.192;2022-10-31T16:14:16;16.10;99.90
35960;DHT22;22043;50.970;7.192;2022-10-31T16:16:45;16.10;99.90
35960;DHT22;22043;50.970;7.192;2022-10-31T16:19:21;16.10;99.90
35960;DHT22;22043;50.970;7.192;2022-10-31T16:21:54;16.10;99.90
35960;DHT22;22043;50.970;7.192;2022-10-31T16:24:32;16.10;99.90
35960;DHT22;22043;50.970;7.192;2022-10-31T16:27:05;16.00;99.90
35960;DHT22;22043;50.970;7.192;2022-10-31T16:29:41;16.00;99.90
35960;DHT22;22043;50.970;7.192;2022-10-31T16:32:30;16.00;99.90
35960;DHT22;22043;50.970;7.192;2022-10-31T16:35:02;15.90;99.90
35960;DHT22;22043;50.970;7.192;2022-10-31T16:37:41;15.90;99.90
35960;DHT22;22043;50.970;7.192;2022-10-31T16:40:10;15.90;99.90
35960;DHT22;22043;50.970;7.192;2022-10-31T16:42:36;15.90;99.90
35960;DHT22;22043;50.970;7.192;2022-10-31T16:45:02;15.80;99.90
35960;DHT22;22043;50.970;7.192;2022-10-31T16:47:30;15.80;99.90
35960;DHT22;22043;50.970;7.192;2022-10-31T16:49:55;15.70;99.90
35960;DHT22;22043;50.970;7.192;2022-10-31T16:52:25;15.70;99.90
35960;DHT22;22043;50.970;7.192;2022-10-31T16:54:51;15.60;99.90
35960;DHT22;22043;50.970;7.192;2022-10-31T16:57:26;15.60;99.90
35960;DHT22;22043;50.970;7.192;2022-10-31T16:59:52;15.60;99.90
35960;DHT22;22043;50.970;7.192;2022-10-31T17:02:21;15.60;99.90
35960;DHT22;22043;50.970;7.192;2022-10-31T17:04:47;15.60;99.90
35960;DHT22;22043;50.970;7.192;2022-10-31T17:07:12;15.60;99.90
35960;DHT22;22043;50.970;7.192;2022-10-31T17:09:38;15.60;99.90
35960;DHT22;22043;50.970;7.192;2022-10-31T17:12:05;15.70;99.90
35960;DHT22;22043;50.970;7.192;2022-10-31T17:14:32;15.70;99.90
35960;DHT22;22043;50.970;7.192;2022-10-31T17:16:59;15.70;99.90
35960;DHT22;22043;50.970;7.192;2022-10-31T17:19:24;15.70;99.90
35960;DHT22;22043;50.970;7.192;2022-10-31T17:21:50;15.70;99.90
35960;DHT22;22043;50.970;7.192;2022-10-31T17:24:16;15.80;99.90
35960;DHT22;22043;50.970;7.192;2022-10-31T17:26:41;15.70;99.90
35960;DHT22;22043;50.970;7.192;2022-10-31T17:29:07;15.70;99.90
35960;DHT22;22043;50.970;7.192;2022-10-31T17:31:34;15.70;99.90
35960;DHT22;22043;50.970;7.192;2022-10-31T17:34:01;15.70;99.90
35960;DHT22;22043;50.970;7.192;2022-10-31T17:36:35;15.60;99.90
35960;DHT22;22043;50.970;7.192;2022-10-31T17:39:01;15.60;99.90
35960;DHT22;22043;50.970;7.192;2022-10-31T17:41:28;15.60;99.90
35960;DHT22;22043;50.970;7.192;2022-10-31T17:43:57;15.60;99.90
35960;DHT22;22043;50.970;7.192;2022-10-31T17:46:23;15.60;99.90
35960;DHT22;22043;50.970;7.192;2022-10-31T17:48:49;15.60;99.90
35960;DHT22;22043;50.970;7.192;2022-10-31T17:51:14;15.60;99.90
35960;DHT22;22043;50.970;7.192;2022-10-31T17:53:40;15.60;99.90